sensor_id;sensor_type;location;lat;lon;timestamp;temperature;humidity
9723;DHT22;4900;49.306;8.500;2023-03-01T00:01:08;0.50;62.61
9723;DHT22;4900;49.306;8.500;2023-03-01T00:03:35;0.47;62.54
9723;DHT22;4900;49.306;8.500;2023-03-01T00:06:01;0.47;62.57
9723;DHT22;4900;49.306;8.500;2023-03-01T00:08:27;0.42;62.78
9723;DHT22;4900;49.306;8.500;2023-03-01T00:11:15;0.42;63.17
9723;DHT22;4900;49.306;8.500;2023-03-01T00:13:43;0.42;63.11
9723;DHT22;4900;49.306;8.500;2023-03-01T00:16:19;0.42;63.16
9723;DHT22;4900;49.306;8.500;2023-03-01T00:18:45;0.42;63.16
9723;DHT22;4900;49.306;8.500;2023-03-01T00:21:11;0.41;63.25
9723;DHT22;4900;49.306;8.500;2023-03-01T00:23:37;0.42;63.18
9723;DHT22;4900;49.306;8.500;2023-03-01T00:26:12;0.38;63.45
9723;DHT22;4900;49.306;8.500;2023-03-01T00:28:38;0.33;63.54
9723;DHT22;4900;49.306;8.500;2023-03-01T00:31:12;0.31;63.53
9723;DHT22;4900;49.306;8.500;2023-03-01T00:33:38;0.30;63.58
9723;DHT22;4900;49.306;8.500;2023-03-01T00:36:04;0.31;63.75
9723;DHT22;4900;49.306;8.500;2023-03-01T00:38:30;0.33;63.71
9723;DHT22;4900;49.306;8.500;2023-03-01T00:41:03;0.36;63.72
9723;DHT22;4900;49.306;8.500;2023-03-01T00:43:29;0.38;63.64
9723;DHT22;4900;49.306;8.500;2023-03-01T00:45:56;0.40;63.50
9723;DHT22;4900;49.306;8.500;2023-03-01T00:48:21;0.40;63.41
9723;DHT22;4900;49.306;8.500;2023-03-01T00:50:46;0.37;63.39
9723;DHT22;4900;49.306;8.500;2023-03-01T00:53:12;0.36;63.42
9723;DHT22;4900;49.306;8.500;2023-03-01T00:55:37;0.36;63.50
9723;DHT22;4900;49.306;8.500;2023-03-01T00:58:03;0.29;63.58
9723;DHT22;4900;49.306;8.500;2023-03-01T01:00:28;0.26;63.87
9723;DHT22;4900;49.306;8.500;2023-03-01T01:02:54;0.26;63.85
9723;DHT22;4900;49.306;8.500;2023-03-01T01:05:19;0.26;63.86
9723;DHT22;4900;49.306;8.500;2023-03-01T01:07:48;0.23;63.90
9723;DHT22;4900;49.306;8.500;2023-03-01T01:10:14;0.23;63.95
9723;DHT22;4900;49.306;8.500;2023-03-01T01:12:43;0.22;64.06
9723;DHT22;4900;49.306;8.500;2023-03-01T01:15:09;0.22;64.12
9723;DHT22;4900;49.306;8.500;2023-03-01T01:17:37;0.19;64.12
9723;DHT22;4900;49.306;8.500;2023-03-01T01:20:03;0.19;64.25
9723;DHT22;4900;49.306;8.500;2023-03-01T01:22:28;0.17;64.26
9723;DHT22;4900;49.306;8.500;2023-03-01T01:24:54;0.12;64.41
9723;DHT22;4900;49.306;8.500;2023-03-01T01:27:19;0.13;64.40
9723;DHT22;4900;49.306;8.500;2023-03-01T01:29:45;0.07;64.49
9723;DHT22;4900;49.306;8.500;2023-03-01T01:32:10;0.03;64.80
9723;DHT22;4900;49.306;8.500;2023-03-01T01:34:36;-0.03;64.99
9723;DHT22;4900;49.306;8.500;2023-03-01T01:37:01;-0.04;65.09
9723;DHT22;4900;49.306;8.500;2023-03-01T01:39:28;-0.08;65.28
9723;DHT22;4900;49.306;8.500;2023-03-01T01:41:53;-0.11;64.99
9723;DHT22;4900;49.306;8.500;2023-03-01T01:44:25;-0.12;64.84
9723;DHT22;4900;49.306;8.500;2023-03-01T01:47:24;-0.15;64.73
9723;DHT22;4900;49.306;8.500;2023-03-01T01:49:51;-0.15;64.69
9723;DHT22;4900;49.306;8.500;2023-03-01T01:52:53;-0.19;64.73
9723;DHT22;4900;49.306;8.500;2023-03-01T01:55:16;-0.23;64.76
9723;DHT22;4900;49.306;8.500;2023-03-01T01:57:48;-0.23;64.98
9723;DHT22;4900;49.306;8.500;2023-03-01T02:00:20;-0.22;64.97
9723;DHT22;4900;49.306;8.500;2023-03-01T02:02:49;-0.25;64.96
9723;DHT22;4900;49.306;8.500;2023-03-01T02:07:52;-0.26;64.97
9723;DHT22;4900;49.306;8.500;2023-03-01T02:10:17;-0.28;64.98
9723;DHT22;4900;49.306;8.500;2023-03-01T02:12:43;-0.32;64.90
9723;DHT22;4900;49.306;8.500;2023-03-01T02:15:09;-0.32;64.82
9723;DHT22;4900;49.306;8.500;2023-03-01T02:17:35;-0.38;64.81
9723;DHT22;4900;49.306;8.500;2023-03-01T02:20:27;-0.39;64.86
9723;DHT22;4900;49.306;8.500;2023-03-01T02:22:55;-0.45;64.93
9723;DHT22;4900;49.306;8.500;2023-03-01T02:25:40;-0.49;65.16
9723;DHT22;4900;49.306;8.500;2023-03-01T02:30:42;-0.57;65.58
9723;DHT22;4900;49.306;8.500;2023-03-01T02:33:30;-0.57;65.78
9723;DHT22;4900;49.306;8.500;2023-03-01T02:36:03;-0.61;65.91
9723;DHT22;4900;49.306;8.500;2023-03-01T02:38:30;-0.64;66.20
9723;DHT22;4900;49.306;8.500;2023-03-01T02:40:57;-0.64;67.19
9723;DHT22;4900;49.306;8.500;2023-03-01T02:43:27;-0.67;67.49
9723;DHT22;4900;49.306;8.500;2023-03-01T02:45:58;-0.66;67.27
9723;DHT22;4900;49.306;8.500;2023-03-01T02:48:24;-0.64;67.20
9723;DHT22;4900;49.306;8.500;2023-03-01T02:56:13;-0.70;67.02
9723;DHT22;4900;49.306;8.500;2023-03-01T02:58:41;-0.68;67.10
9723;DHT22;4900;49.306;8.500;2023-03-01T03:01:10;-0.70;66.88
9723;DHT22;4900;49.306;8.500;2023-03-01T03:03:35;-0.71;66.76
9723;DHT22;4900;49.306;8.500;2023-03-01T03:06:01;-0.76;66.93
9723;DHT22;4900;49.306;8.500;2023-03-01T03:08:26;-0.76;66.66
9723;DHT22;4900;49.306;8.500;2023-03-01T03:10:52;-0.74;66.36
9723;DHT22;4900;49.306;8.500;2023-03-01T03:13:18;-0.80;66.19
9723;DHT22;4900;49.306;8.500;2023-03-01T03:15:44;-0.81;65.99
9723;DHT22;4900;49.306;8.500;2023-03-01T03:18:13;-0.84;65.98
9723;DHT22;4900;49.306;8.500;2023-03-01T03:20:40;-0.88;65.94
9723;DHT22;4900;49.306;8.500;2023-03-01T03:23:07;-0.89;65.94
9723;DHT22;4900;49.306;8.500;2023-03-01T03:25:32;-0.95;66.15
9723;DHT22;4900;49.306;8.500;2023-03-01T03:27:58;-0.99;66.31
9723;DHT22;4900;49.306;8.500;2023-03-01T03:30:29;-1.01;66.20
9723;DHT22;4900;49.306;8.500;2023-03-01T03:32:55;-1.02;66.02
9723;DHT22;4900;49.306;8.500;2023-03-01T03:35:33;-1.08;66.04
9723;DHT22;4900;49.306;8.500;2023-03-01T03:38:01;-1.14;66.04
9723;DHT22;4900;49.306;8.500;2023-03-01T03:40:32;-1.14;66.09
9723;DHT22;4900;49.306;8.500;2023-03-01T03:42:58;-1.16;66.47
9723;DHT22;4900;49.306;8.500;2023-03-01T03:45:23;-1.19;66.58
9723;DHT22;4900;49.306;8.500;2023-03-01T03:47:49;-1.18;66.44
9723;DHT22;4900;49.306;8.500;2023-03-01T03:50:16;-1.22;66.58
9723;DHT22;4900;49.306;8.500;2023-03-01T03:52:42;-1.25;66.61
9723;DHT22;4900;49.306;8.500;2023-03-01T03:55:09;-1.31;66.72
9723;DHT22;4900;49.306;8.500;2023-03-01T03:57:42;-1.31;66.78
9723;DHT22;4900;49.306;8.500;2023-03-01T04:00:10;-1.31;66.68
9723;DHT22;4900;49.306;8.500;2023-03-01T04:02:41;-1.33;66.60
9723;DHT22;4900;49.306;8.500;2023-03-01T04:05:08;-1.38;66.58
9723;DHT22;4900;49.306;8.500;2023-03-01T04:07:37;-1.40;66.54
9723;DHT22;4900;49.306;8.500;2023-03-01T04:10:09;-1.39;66.53
9723;DHT22;4900;49.306;8.500;2023-03-01T04:12:35;-1.44;66.44
9723;DHT22;4900;49.306;8.500;2023-03-01T04:15:02;-1.47;66.67
9723;DHT22;4900;49.306;8.500;2023-03-01T04:17:38;-1.49;67.02
9723;DHT22;4900;49.306;8.500;2023-03-01T04:20:05;-1.51;67.56
9723;DHT22;4900;49.306;8.500;2023-03-01T04:22:31;-1.51;67.94
9723;DHT22;4900;49.306;8.500;2023-03-01T04:24:57;-1.50;68.03
9723;DHT22;4900;49.306;8.500;2023-03-01T04:27:23;-1.47;68.29
9723;DHT22;4900;49.306;8.500;2023-03-01T04:29:48;-1.46;68.65
9723;DHT22;4900;49.306;8.500;2023-03-01T04:32:14;-1.42;68.86
9723;DHT22;4900;49.306;8.500;2023-03-01T04:34:41;-1.43;68.78
9723;DHT22;4900;49.306;8.500;2023-03-01T04:37:06;-1.42;68.81
9723;DHT22;4900;49.306;8.500;2023-03-01T04:39:32;-1.36;69.01
9723;DHT22;4900;49.306;8.500;2023-03-01T04:41:57;-1.38;68.77
9723;DHT22;4900;49.306;8.500;2023-03-01T04:44:23;-1.38;69.10
9723;DHT22;4900;49.306;8.500;2023-03-01T04:46:49;-1.36;69.27
9723;DHT22;4900;49.306;8.500;2023-03-01T04:49:15;-1.39;69.10
9723;DHT22;4900;49.306;8.500;2023-03-01T04:51:41;-1.36;68.94
9723;DHT22;4900;49.306;8.500;2023-03-01T04:54:07;-1.32;68.71
9723;DHT22;4900;49.306;8.500;2023-03-01T04:56:34;-1.35;68.51
9723;DHT22;4900;49.306;8.500;2023-03-01T04:58:59;-1.38;68.73
9723;DHT22;4900;49.306;8.500;2023-03-01T05:01:25;-1.35;69.05
9723;DHT22;4900;49.306;8.500;2023-03-01T05:03:51;-1.32;69.38
9723;DHT22;4900;49.306;8.500;2023-03-01T05:06:18;-1.28;69.38
9723;DHT22;4900;49.306;8.500;2023-03-01T05:08:44;-1.26;69.24
9723;DHT22;4900;49.306;8.500;2023-03-01T05:11:10;-1.26;69.19
9723;DHT22;4900;49.306;8.500;2023-03-01T05:13:37;-1.22;69.29
9723;DHT22;4900;49.306;8.500;2023-03-01T05:16:04;-1.22;69.07
9723;DHT22;4900;49.306;8.500;2023-03-01T05:18:32;-1.22;68.99
9723;DHT22;4900;49.306;8.500;2023-03-01T05:21:09;-1.22;68.90
9723;DHT22;4900;49.306;8.500;2023-03-01T05:23:35;-1.21;68.80
9723;DHT22;4900;49.306;8.500;2023-03-01T05:26:02;-1.21;68.99
9723;DHT22;4900;49.306;8.500;2023-03-01T05:28:29;-1.22;69.08
9723;DHT22;4900;49.306;8.500;2023-03-01T05:30:55;-1.28;69.31
9723;DHT22;4900;49.306;8.500;2023-03-01T05:33:21;-1.28;69.43
9723;DHT22;4900;49.306;8.500;2023-03-01T05:35:48;-1.28;69.52
9723;DHT22;4900;49.306;8.500;2023-03-01T05:38:14;-1.28;69.53
9723;DHT22;4900;49.306;8.500;2023-03-01T05:40:41;-1.32;69.32
9723;DHT22;4900;49.306;8.500;2023-03-01T05:43:07;-1.32;69.05
9723;DHT22;4900;49.306;8.500;2023-03-01T05:45:33;-1.38;68.93
9723;DHT22;4900;49.306;8.500;2023-03-01T05:48:00;-1.40;68.87
9723;DHT22;4900;49.306;8.500;2023-03-01T05:50:28;-1.42;68.67
9723;DHT22;4900;49.306;8.500;2023-03-01T05:53:02;-1.43;68.57
9723;DHT22;4900;49.306;8.500;2023-03-01T05:55:30;-1.49;68.34
9723;DHT22;4900;49.306;8.500;2023-03-01T05:57:59;-1.50;68.42
9723;DHT22;4900;49.306;8.500;2023-03-01T06:00:26;-1.50;68.44
9723;DHT22;4900;49.306;8.500;2023-03-01T06:02:53;-1.57;68.25
9723;DHT22;4900;49.306;8.500;2023-03-01T06:05:19;-1.59;68.15
9723;DHT22;4900;49.306;8.500;2023-03-01T06:07:45;-1.61;68.08
9723;DHT22;4900;49.306;8.500;2023-03-01T06:10:12;-1.64;68.15
9723;DHT22;4900;49.306;8.500;2023-03-01T06:12:38;-1.64;68.19
9723;DHT22;4900;49.306;8.500;2023-03-01T06:15:05;-1.67;68.13
9723;DHT22;4900;49.306;8.500;2023-03-01T06:17:34;-1.68;68.10
9723;DHT22;4900;49.306;8.500;2023-03-01T06:20:18;-1.67;68.02
9723;DHT22;4900;49.306;8.500;2023-03-01T06:22:44;-1.66;67.93
9723;DHT22;4900;49.306;8.500;2023-03-01T06:25:11;-1.61;67.92
9723;DHT22;4900;49.306;8.500;2023-03-01T06:27:38;-1.64;67.96
9723;DHT22;4900;49.306;8.500;2023-03-01T06:30:04;-1.60;68.06
9723;DHT22;4900;49.306;8.500;2023-03-01T06:32:29;-1.56;67.93
9723;DHT22;4900;49.306;8.500;2023-03-01T06:34:56;-1.53;67.91
9723;DHT22;4900;49.306;8.500;2023-03-01T06:37:21;-1.51;67.86
9723;DHT22;4900;49.306;8.500;2023-03-01T06:39:47;-1.46;67.76
9723;DHT22;4900;49.306;8.500;2023-03-01T06:42:12;-1.43;67.71
9723;DHT22;4900;49.306;8.500;2023-03-01T06:44:38;-1.39;67.83
9723;DHT22;4900;49.306;8.500;2023-03-01T06:47:04;-1.35;67.74
9723;DHT22;4900;49.306;8.500;2023-03-01T06:49:29;-1.32;67.72
9723;DHT22;4900;49.306;8.500;2023-03-01T06:51:56;-1.29;67.66
9723;DHT22;4900;49.306;8.500;2023-03-01T06:54:21;-1.25;67.53
9723;DHT22;4900;49.306;8.500;2023-03-01T06:56:48;-1.19;67.47
9723;DHT22;4900;49.306;8.500;2023-03-01T06:59:14;-1.19;67.38
9723;DHT22;4900;49.306;8.500;2023-03-01T07:01:40;-1.12;67.45
9723;DHT22;4900;49.306;8.500;2023-03-01T07:04:05;-1.07;67.49
9723;DHT22;4900;49.306;8.500;2023-03-01T07:06:31;-1.04;67.48
9723;DHT22;4900;49.306;8.500;2023-03-01T07:08:56;-0.98;67.40
9723;DHT22;4900;49.306;8.500;2023-03-01T07:11:22;-0.89;67.60
9723;DHT22;4900;49.306;8.500;2023-03-01T07:13:48;-0.81;67.67
9723;DHT22;4900;49.306;8.500;2023-03-01T07:16:14;-0.76;67.80
9723;DHT22;4900;49.306;8.500;2023-03-01T07:18:40;-0.67;67.80
9723;DHT22;4900;49.306;8.500;2023-03-01T07:21:11;-0.56;67.89
9723;DHT22;4900;49.306;8.500;2023-03-01T07:23:37;-0.48;68.20
9723;DHT22;4900;49.306;8.500;2023-03-01T07:26:03;-0.40;68.08
9723;DHT22;4900;49.306;8.500;2023-03-01T07:28:29;-0.28;68.33
9723;DHT22;4900;49.306;8.500;2023-03-01T07:30:54;-0.19;68.63
9723;DHT22;4900;49.306;8.500;2023-03-01T07:33:20;-0.11;69.45
9723;DHT22;4900;49.306;8.500;2023-03-01T07:35:45;-0.01;69.32
9723;DHT22;4900;49.306;8.500;2023-03-01T07:38:11;0.12;69.08
9723;DHT22;4900;49.306;8.500;2023-03-01T07:40:36;0.20;69.05
9723;DHT22;4900;49.306;8.500;2023-03-01T07:43:02;0.31;68.97
9723;DHT22;4900;49.306;8.500;2023-03-01T07:45:28;0.37;69.17
9723;DHT22;4900;49.306;8.500;2023-03-01T07:47:55;0.45;69.74
9723;DHT22;4900;49.306;8.500;2023-03-01T07:50:22;0.54;70.26
9723;DHT22;4900;49.306;8.500;2023-03-01T07:52:49;0.65;70.79
9723;DHT22;4900;49.306;8.500;2023-03-01T07:55:15;0.79;70.09
9723;DHT22;4900;49.306;8.500;2023-03-01T07:57:41;1.08;70.20
9723;DHT22;4900;49.306;8.500;2023-03-01T08:00:09;1.40;69.97
9723;DHT22;4900;49.306;8.500;2023-03-01T08:02:35;1.78;68.56
9723;DHT22;4900;49.306;8.500;2023-03-01T08:05:01;2.11;67.32
9723;DHT22;4900;49.306;8.500;2023-03-01T08:07:26;2.41;66.27
9723;DHT22;4900;49.306;8.500;2023-03-01T08:09:51;2.72;65.23
9723;DHT22;4900;49.306;8.500;2023-03-01T08:12:17;2.94;63.79
9723;DHT22;4900;49.306;8.500;2023-03-01T08:14:42;3.24;62.78
9723;DHT22;4900;49.306;8.500;2023-03-01T08:17:08;3.51;62.12
9723;DHT22;4900;49.306;8.500;2023-03-01T08:19:34;3.83;60.84
9723;DHT22;4900;49.306;8.500;2023-03-01T08:22:01;4.07;59.95
9723;DHT22;4900;49.306;8.500;2023-03-01T08:24:27;4.32;59.03
9723;DHT22;4900;49.306;8.500;2023-03-01T08:26:53;4.53;58.26
9723;DHT22;4900;49.306;8.500;2023-03-01T08:29:19;4.84;57.72
9723;DHT22;4900;49.306;8.500;2023-03-01T08:31:45;5.09;56.87
9723;DHT22;4900;49.306;8.500;2023-03-01T08:34:14;5.32;56.24
9723;DHT22;4900;49.306;8.500;2023-03-01T08:36:41;5.63;55.46
9723;DHT22;4900;49.306;8.500;2023-03-01T08:39:09;5.88;54.56
9723;DHT22;4900;49.306;8.500;2023-03-01T08:41:35;6.10;53.69
9723;DHT22;4900;49.306;8.500;2023-03-01T08:44:00;6.32;52.93
9723;DHT22;4900;49.306;8.500;2023-03-01T08:46:37;6.54;52.33
9723;DHT22;4900;49.306;8.500;2023-03-01T08:49:07;6.78;51.71
9723;DHT22;4900;49.306;8.500;2023-03-01T08:51:33;6.99;51.07
9723;DHT22;4900;49.306;8.500;2023-03-01T08:54:07;7.13;50.52
9723;DHT22;4900;49.306;8.500;2023-03-01T08:56:35;7.34;50.05
9723;DHT22;4900;49.306;8.500;2023-03-01T08:59:00;7.66;49.14
9723;DHT22;4900;49.306;8.500;2023-03-01T09:01:26;7.93;48.80
9723;DHT22;4900;49.306;8.500;2023-03-01T09:03:51;7.96;48.53
9723;DHT22;4900;49.306;8.500;2023-03-01T09:06:17;8.24;47.77
9723;DHT22;4900;49.306;8.500;2023-03-01T09:08:45;8.46;47.19
9723;DHT22;4900;49.306;8.500;2023-03-01T09:11:13;8.54;46.45
9723;DHT22;4900;49.306;8.500;2023-03-01T09:13:40;8.71;46.18
9723;DHT22;4900;49.306;8.500;2023-03-01T09:16:07;8.95;45.75
9723;DHT22;4900;49.306;8.500;2023-03-01T09:18:33;9.24;45.13
9723;DHT22;4900;49.306;8.500;2023-03-01T09:21:11;9.44;44.72
9723;DHT22;4900;49.306;8.500;2023-03-01T09:23:41;9.67;44.75
9723;DHT22;4900;49.306;8.500;2023-03-01T09:26:09;9.87;44.24
9723;DHT22;4900;49.306;8.500;2023-03-01T09:28:36;10.04;43.85
9723;DHT22;4900;49.306;8.500;2023-03-01T09:31:02;10.25;43.55
9723;DHT22;4900;49.306;8.500;2023-03-01T09:33:29;10.49;43.03
9723;DHT22;4900;49.306;8.500;2023-03-01T09:36:07;10.55;42.60
9723;DHT22;4900;49.306;8.500;2023-03-01T09:38:33;10.73;42.44
9723;DHT22;4900;49.306;8.500;2023-03-01T09:41:00;10.97;42.38
9723;DHT22;4900;49.306;8.500;2023-03-01T09:43:47;11.24;41.94
9723;DHT22;4900;49.306;8.500;2023-03-01T09:46:20;11.29;41.71
9723;DHT22;4900;49.306;8.500;2023-03-01T09:48:51;11.35;41.42
9723;DHT22;4900;49.306;8.500;2023-03-01T09:51:31;11.58;40.75
9723;DHT22;4900;49.306;8.500;2023-03-01T09:53:57;11.55;40.56
9723;DHT22;4900;49.306;8.500;2023-03-01T09:56:44;11.59;40.13
9723;DHT22;4900;49.306;8.500;2023-03-01T10:04:45;12.26;39.57
9723;DHT22;4900;49.306;8.500;2023-03-01T10:07:37;12.39;39.06
9723;DHT22;4900;49.306;8.500;2023-03-01T10:10:07;12.56;39.11
9723;DHT22;4900;49.306;8.500;2023-03-01T10:12:36;12.70;38.55
9723;DHT22;4900;49.306;8.500;2023-03-01T10:22:45;13.35;37.67
9723;DHT22;4900;49.306;8.500;2023-03-01T10:25:17;13.53;37.71
9723;DHT22;4900;49.306;8.500;2023-03-01T10:27:54;13.71;37.07
9723;DHT22;4900;49.306;8.500;2023-03-01T10:30:25;13.91;36.92
9723;DHT22;4900;49.306;8.500;2023-03-01T10:32:54;14.11;36.87
9723;DHT22;4900;49.306;8.500;2023-03-01T10:35:25;14.22;36.67
9723;DHT22;4900;49.306;8.500;2023-03-01T10:38:18;14.28;35.69
9723;DHT22;4900;49.306;8.500;2023-03-01T10:41:00;14.29;35.87
9723;DHT22;4900;49.306;8.500;2023-03-01T10:43:47;14.37;35.70
9723;DHT22;4900;49.306;8.500;2023-03-01T10:51:35;14.59;35.52
9723;DHT22;4900;49.306;8.500;2023-03-01T10:54:02;14.43;35.00
9723;DHT22;4900;49.306;8.500;2023-03-01T10:56:27;14.66;35.33
9723;DHT22;4900;49.306;8.500;2023-03-01T11:01:29;15.20;35.20
9723;DHT22;4900;49.306;8.500;2023-03-01T11:06:35;15.38;35.18
9723;DHT22;4900;49.306;8.500;2023-03-01T11:09:14;15.47;34.93
9723;DHT22;4900;49.306;8.500;2023-03-01T11:11:40;15.51;34.64
9723;DHT22;4900;49.306;8.500;2023-03-01T11:14:16;15.87;34.06
9723;DHT22;4900;49.306;8.500;2023-03-01T11:16:45;15.99;33.80
9723;DHT22;4900;49.306;8.500;2023-03-01T11:24:39;16.22;33.66
9723;DHT22;4900;49.306;8.500;2023-03-01T11:27:44;16.46;32.69
9723;DHT22;4900;49.306;8.500;2023-03-01T11:30:13;16.28;32.20
9723;DHT22;4900;49.306;8.500;2023-03-01T11:32:45;16.53;32.90
9723;DHT22;4900;49.306;8.500;2023-03-01T11:35:22;16.49;32.42
9723;DHT22;4900;49.306;8.500;2023-03-01T11:40:47;16.85;32.78
9723;DHT22;4900;49.306;8.500;2023-03-01T11:43:26;17.09;32.37
9723;DHT22;4900;49.306;8.500;2023-03-01T11:57:11;17.92;31.71
9723;DHT22;4900;49.306;8.500;2023-03-01T12:09:00;17.95;31.94
9723;DHT22;4900;49.306;8.500;2023-03-01T12:14:28;18.05;31.09
9723;DHT22;4900;49.306;8.500;2023-03-01T12:20:01;18.20;30.91
9723;DHT22;4900;49.306;8.500;2023-03-01T12:22:50;17.84;30.28
9723;DHT22;4900;49.306;8.500;2023-03-01T12:37:08;17.30;31.32
9723;DHT22;4900;49.306;8.500;2023-03-01T12:48:11;17.32;32.18
9723;DHT22;4900;49.306;8.500;2023-03-01T12:50:46;17.24;31.47
9723;DHT22;4900;49.306;8.500;2023-03-01T12:53:23;17.34;31.70
9723;DHT22;4900;49.306;8.500;2023-03-01T12:55:50;17.54;31.70
9723;DHT22;4900;49.306;8.500;2023-03-01T12:58:33;17.82;32.01
9723;DHT22;4900;49.306;8.500;2023-03-01T13:01:13;17.50;31.26
9723;DHT22;4900;49.306;8.500;2023-03-01T13:09:52;17.67;31.71
9723;DHT22;4900;49.306;8.500;2023-03-01T13:12:45;17.49;31.52
9723;DHT22;4900;49.306;8.500;2023-03-01T13:17:54;17.71;31.83
9723;DHT22;4900;49.306;8.500;2023-03-01T13:20:34;17.73;31.46
9723;DHT22;4900;49.306;8.500;2023-03-01T13:31:05;17.53;31.07
9723;DHT22;4900;49.306;8.500;2023-03-01T13:35:59;17.39;31.81
9723;DHT22;4900;49.306;8.500;2023-03-01T13:38:45;17.02;31.70
9723;DHT22;4900;49.306;8.500;2023-03-01T13:41:13;17.27;31.78
9723;DHT22;4900;49.306;8.500;2023-03-01T13:43:41;17.15;31.77
9723;DHT22;4900;49.306;8.500;2023-03-01T13:46:20;17.30;32.12
9723;DHT22;4900;49.306;8.500;2023-03-01T13:48:51;17.24;32.05
9723;DHT22;4900;49.306;8.500;2023-03-01T13:51:23;17.44;32.08
9723;DHT22;4900;49.306;8.500;2023-03-01T13:53:50;17.51;31.96
9723;DHT22;4900;49.306;8.500;2023-03-01T13:56:25;17.39;31.60
9723;DHT22;4900;49.306;8.500;2023-03-01T14:03:48;17.40;31.73
9723;DHT22;4900;49.306;8.500;2023-03-01T14:06:16;17.24;31.91
9723;DHT22;4900;49.306;8.500;2023-03-01T14:08:45;17.22;31.73
9723;DHT22;4900;49.306;8.500;2023-03-01T14:16:32;18.29;31.31
9723;DHT22;4900;49.306;8.500;2023-03-01T14:19:15;18.63;31.54
9723;DHT22;4900;49.306;8.500;2023-03-01T14:21:46;18.96;30.95
9723;DHT22;4900;49.306;8.500;2023-03-01T14:24:20;19.02;31.15
9723;DHT22;4900;49.306;8.500;2023-03-01T14:26:51;18.99;30.68
9723;DHT22;4900;49.306;8.500;2023-03-01T14:29:38;19.18;30.69
9723;DHT22;4900;49.306;8.500;2023-03-01T14:34:46;19.65;30.66
9723;DHT22;4900;49.306;8.500;2023-03-01T14:39:52;19.89;30.10
9723;DHT22;4900;49.306;8.500;2023-03-01T14:42:21;19.90;29.53
9723;DHT22;4900;49.306;8.500;2023-03-01T14:44:51;20.01;29.43
9723;DHT22;4900;49.306;8.500;2023-03-01T14:47:26;20.12;29.82
9723;DHT22;4900;49.306;8.500;2023-03-01T14:50:00;20.08;29.51
9723;DHT22;4900;49.306;8.500;2023-03-01T14:52:37;19.92;29.74
9723;DHT22;4900;49.306;8.500;2023-03-01T14:55:09;19.83;29.30
9723;DHT22;4900;49.306;8.500;2023-03-01T14:57:43;19.67;29.37
9723;DHT22;4900;49.306;8.500;2023-03-01T15:00:18;19.59;29.82
9723;DHT22;4900;49.306;8.500;2023-03-01T15:02:45;19.59;29.67
9723;DHT22;4900;49.306;8.500;2023-03-01T15:05:14;19.65;30.07
9723;DHT22;4900;49.306;8.500;2023-03-01T15:07:42;19.82;29.69
9723;DHT22;4900;49.306;8.500;2023-03-01T15:10:22;19.92;30.00
9723;DHT22;4900;49.306;8.500;2023-03-01T15:12:49;19.99;29.80
9723;DHT22;4900;49.306;8.500;2023-03-01T15:15:31;19.99;29.56
9723;DHT22;4900;49.306;8.500;2023-03-01T15:18:04;19.99;29.20
9723;DHT22;4900;49.306;8.500;2023-03-01T15:20:31;19.83;28.96
9723;DHT22;4900;49.306;8.500;2023-03-01T15:23:01;19.86;29.02
9723;DHT22;4900;49.306;8.500;2023-03-01T15:25:28;19.87;28.85
9723;DHT22;4900;49.306;8.500;2023-03-01T15:27:56;19.86;28.61
9723;DHT22;4900;49.306;8.500;2023-03-01T15:30:26;19.82;28.88
9723;DHT22;4900;49.306;8.500;2023-03-01T15:33:28;19.65;28.91
9723;DHT22;4900;49.306;8.500;2023-03-01T15:35:59;19.53;29.05
9723;DHT22;4900;49.306;8.500;2023-03-01T15:38:35;19.48;29.08
9723;DHT22;4900;49.306;8.500;2023-03-01T15:43:48;19.29;29.03
9723;DHT22;4900;49.306;8.500;2023-03-01T15:46:23;19.04;29.09
9723;DHT22;4900;49.306;8.500;2023-03-01T15:48:53;18.91;28.98
9723;DHT22;4900;49.306;8.500;2023-03-01T15:53:56;18.67;29.20
9723;DHT22;4900;49.306;8.500;2023-03-01T15:56:23;18.46;29.24
9723;DHT22;4900;49.306;8.500;2023-03-01T15:58:48;18.34;29.23
9723;DHT22;4900;49.306;8.500;2023-03-01T16:01:15;18.14;29.48
9723;DHT22;4900;49.306;8.500;2023-03-01T16:03:44;17.98;29.58
9723;DHT22;4900;49.306;8.500;2023-03-01T16:06:10;17.82;29.53
9723;DHT22;4900;49.306;8.500;2023-03-01T16:08:39;17.54;29.60
9723;DHT22;4900;49.306;8.500;2023-03-01T16:11:15;17.26;29.44
9723;DHT22;4900;49.306;8.500;2023-03-01T16:13:41;17.06;29.59
9723;DHT22;4900;49.306;8.500;2023-03-01T16:16:09;16.89;30.27
9723;DHT22;4900;49.306;8.500;2023-03-01T16:18:38;16.71;30.32
9723;DHT22;4900;49.306;8.500;2023-03-01T16:21:04;16.36;30.13
9723;DHT22;4900;49.306;8.500;2023-03-01T16:23:30;16.04;30.54
9723;DHT22;4900;49.306;8.500;2023-03-01T16:25:59;15.75;30.94
9723;DHT22;4900;49.306;8.500;2023-03-01T16:28:24;15.39;31.21
9723;DHT22;4900;49.306;8.500;2023-03-01T16:30:51;14.95;31.94
9723;DHT22;4900;49.306;8.500;2023-03-01T16:33:17;14.63;32.14
9723;DHT22;4900;49.306;8.500;2023-03-01T16:35:43;14.23;32.83
9723;DHT22;4900;49.306;8.500;2023-03-01T16:38:09;13.86;33.49
9723;DHT22;4900;49.306;8.500;2023-03-01T16:40:35;13.46;34.02
9723;DHT22;4900;49.306;8.500;2023-03-01T16:43:00;13.12;34.25
9723;DHT22;4900;49.306;8.500;2023-03-01T16:45:28;12.74;35.11
9723;DHT22;4900;49.306;8.500;2023-03-01T16:47:54;12.43;35.71
9723;DHT22;4900;49.306;8.500;2023-03-01T16:50:19;12.14;36.42
9723;DHT22;4900;49.306;8.500;2023-03-01T16:52:45;11.83;37.13
9723;DHT22;4900;49.306;8.500;2023-03-01T16:55:10;11.53;37.90
9723;DHT22;4900;49.306;8.500;2023-03-01T16:57:37;11.26;38.43
9723;DHT22;4900;49.306;8.500;2023-03-01T17:00:04;11.01;39.05
9723;DHT22;4900;49.306;8.500;2023-03-01T17:02:33;10.80;39.46
9723;DHT22;4900;49.306;8.500;2023-03-01T17:04:59;10.56;40.14
9723;DHT22;4900;49.306;8.500;2023-03-01T17:07:24;10.35;40.29
9723;DHT22;4900;49.306;8.500;2023-03-01T17:09:50;10.10;41.07
9723;DHT22;4900;49.306;8.500;2023-03-01T17:12:15;9.90;41.41
9723;DHT22;4900;49.306;8.500;2023-03-01T17:14:42;9.65;41.92
9723;DHT22;4900;49.306;8.500;2023-03-01T17:17:08;9.48;42.19
9723;DHT22;4900;49.306;8.500;2023-03-01T17:19:35;9.27;42.69
9723;DHT22;4900;49.306;8.500;2023-03-01T17:22:05;9.08;42.76
9723;DHT22;4900;49.306;8.500;2023-03-01T17:24:35;8.86;43.19
9723;DHT22;4900;49.306;8.500;2023-03-01T17:27:01;8.69;43.64
9723;DHT22;4900;49.306;8.500;2023-03-01T17:29:26;8.48;44.03
9723;DHT22;4900;49.306;8.500;2023-03-01T17:31:52;8.33;44.23
9723;DHT22;4900;49.306;8.500;2023-03-01T17:34:19;8.17;44.77
9723;DHT22;4900;49.306;8.500;2023-03-01T17:36:45;8.00;44.95
9723;DHT22;4900;49.306;8.500;2023-03-01T17:39:12;7.86;45.38
9723;DHT22;4900;49.306;8.500;2023-03-01T17:41:37;7.72;45.71
9723;DHT22;4900;49.306;8.500;2023-03-01T17:44:03;7.55;45.86
9723;DHT22;4900;49.306;8.500;2023-03-01T17:46:29;7.44;46.32
9723;DHT22;4900;49.306;8.500;2023-03-01T17:48:54;7.31;46.56
9723;DHT22;4900;49.306;8.500;2023-03-01T17:51:20;7.24;46.90
9723;DHT22;4900;49.306;8.500;2023-03-01T17:53:45;7.09;47.20
9723;DHT22;4900;49.306;8.500;2023-03-01T17:56:11;6.99;47.57
9723;DHT22;4900;49.306;8.500;2023-03-01T17:58:37;6.87;47.68
9723;DHT22;4900;49.306;8.500;2023-03-01T18:01:21;6.72;48.09
9723;DHT22;4900;49.306;8.500;2023-03-01T18:03:50;6.57;48.25
9723;DHT22;4900;49.306;8.500;2023-03-01T18:06:22;6.41;48.65
9723;DHT22;4900;49.306;8.500;2023-03-01T18:08:48;6.27;48.95
9723;DHT22;4900;49.306;8.500;2023-03-01T18:11:18;6.13;49.15
9723;DHT22;4900;49.306;8.500;2023-03-01T18:13:44;6.03;49.61
9723;DHT22;4900;49.306;8.500;2023-03-01T18:16:12;5.87;49.97
9723;DHT22;4900;49.306;8.500;2023-03-01T18:18:38;5.79;50.21
9723;DHT22;4900;49.306;8.500;2023-03-01T18:21:05;5.71;50.56
9723;DHT22;4900;49.306;8.500;2023-03-01T18:23:32;5.61;50.56
9723;DHT22;4900;49.306;8.500;2023-03-01T18:26:03;5.53;50.81
9723;DHT22;4900;49.306;8.500;2023-03-01T18:28:30;5.39;51.16